sensor_id;sensor_type;location;lat;lon;timestamp;pressure;altitude;pressure_sealevel;temperature;humidity
30856;BME280;17570;0.000;0.000;2023-10-31T00:01:16;97092.84;;;20.00;41.69
30856;BME280;17570;0.000;0.000;2023-10-31T00:03:43;97092.03;;;19.99;41.93
30856;BME280;17570;0.000;0.000;2023-10-31T00:06:11;97089.39;;;19.99;42.42
30856;BME280;17570;0.000;0.000;2023-10-31T00:08:38;97081.67;;;19.98;42.50
30856;BME280;17570;0.000;0.000;2023-10-31T00:11:06;97081.48;;;19.99;42.66
30856;BME280;17570;0.000;0.000;2023-10-31T00:13:33;97074.59;;;19.98;42.64
30856;BME280;17570;0.000;0.000;2023-10-31T00:16:01;97072.14;;;19.97;42.88
30856;BME280;17570;0.000;0.000;2023-10-31T00:18:29;97066.05;;;19.96;42.38
30856;BME280;17570;0.000;0.000;2023-10-31T00:20:56;97061.76;;;19.95;42.70
30856;BME280;17570;0.000;0.000;2023-10-31T00:23:24;97062.77;;;19.94;42.64
30856;BME280;17570;0.000;0.000;2023-10-31T00:25:51;97059.13;;;19.95;43.06
30856;BME280;17570;0.000;0.000;2023-10-31T00:28:19;97054.52;;;19.97;43.04
30856;BME280;17570;0.000;0.000;2023-10-31T00:30:46;97057.49;;;19.94;43.11
30856;BME280;17570;0.000;0.000;2023-10-31T00:33:14;97055.67;;;19.95;42.78
30856;BME280;17570;0.000;0.000;2023-10-31T00:35:42;97047.77;;;19.95;42.95
30856;BME280;17570;0.000;0.000;2023-10-31T00:38:09;97045.33;;;19.93;42.76
30856;BME280;17570;0.000;0.000;2023-10-31T00:40:37;97047.33;;;19.91;42.46
30856;BME280;17570;0.000;0.000;2023-10-31T00:43:05;97051.95;;;19.89;42.62
30856;BME280;17570;0.000;0.000;2023-10-31T00:45:32;97045.86;;;19.88;42.41
30856;BME280;17570;0.000;0.000;2023-10-31T00:48:00;97038.95;;;19.87;42.59
30856;BME280;17570;0.000;0.000;2023-10-31T00:50:27;97036.48;;;19.86;42.50
30856;BME280;17570;0.000;0.000;2023-10-31T00:52:55;97038.49;;;19.84;42.74
30856;BME280;17570;0.000;0.000;2023-10-31T00:55:23;97034.91;;;19.77;43.08
30856;BME280;17570;0.000;0.000;2023-10-31T00:57:51;97028.48;;;19.79;42.59
30856;BME280;17570;0.000;0.000;2023-10-31T01:00:18;97034.91;;;19.77;42.49
30856;BME280;17570;0.000;0.000;2023-10-31T01:02:46;97034.29;;;19.75;42.55
30856;BME280;17570;0.000;0.000;2023-10-31T01:05:14;97034.48;;;19.73;42.37
30856;BME280;17570;0.000;0.000;2023-10-31T01:07:41;97032.00;;;19.72;42.36
30856;BME280;17570;0.000;0.000;2023-10-31T01:10:09;97028.27;;;19.66;42.52
30856;BME280;17570;0.000;0.000;2023-10-31T01:12:37;97023.00;;;19.66;42.39
30856;BME280;17570;0.000;0.000;2023-10-31T01:15:04;97023.00;;;19.66;42.40
30856;BME280;17570;0.000;0.000;2023-10-31T01:17:33;97017.27;;;19.62;42.29
30856;BME280;17570;0.000;0.000;2023-10-31T01:20:00;97019.58;;;19.57;42.24
30856;BME280;17570;0.000;0.000;2023-10-31T01:22:28;97016.32;;;19.55;42.44
30856;BME280;17570;0.000;0.000;2023-10-31T01:24:56;97029.30;;;19.57;41.98
30856;BME280;17570;0.000;0.000;2023-10-31T01:27:23;97023.56;;;19.53;42.25
30856;BME280;17570;0.000;0.000;2023-10-31T01:29:51;97026.38;;;19.52;42.12
30856;BME280;17570;0.000;0.000;2023-10-31T01:32:18;97024.09;;;19.49;41.93
30856;BME280;17570;0.000;0.000;2023-10-31T01:34:46;97021.64;;;19.47;42.47
30856;BME280;17570;0.000;0.000;2023-10-31T01:37:13;97027.91;;;19.46;41.75
30856;BME280;17570;0.000;0.000;2023-10-31T01:39:41;97016.72;;;19.44;42.09
30856;BME280;17570;0.000;0.000;2023-10-31T01:42:08;97020.20;;;19.45;41.96
30856;BME280;17570;0.000;0.000;2023-10-31T01:44:36;97018.92;;;19.64;43.59
30856;BME280;17570;0.000;0.000;2023-10-31T01:47:04;97014.76;;;19.69;43.74
30856;BME280;17570;0.000;0.000;2023-10-31T01:49:31;97012.28;;;19.68;43.62
30856;BME280;17570;0.000;0.000;2023-10-31T01:52:00;97020.71;;;19.63;43.21
30856;BME280;17570;0.000;0.000;2023-10-31T01:54:29;97011.68;;;19.57;42.75
30856;BME280;17570;0.000;0.000;2023-10-31T01:56:57;97013.41;;;19.50;42.53
30856;BME280;17570;0.000;0.000;2023-10-31T01:59:25;97014.56;;;19.48;42.78
30856;BME280;17570;0.000;0.000;2023-10-31T02:01:53;97006.37;;;19.43;42.68
30856;BME280;17570;0.000;0.000;2023-10-31T02:04:23;97011.98;;;19.40;42.64
30856;BME280;17570;0.000;0.000;2023-10-31T02:06:50;97008.91;;;19.36;42.58
30856;BME280;17570;0.000;0.000;2023-10-31T02:09:18;97015.14;;;19.35;42.82
30856;BME280;17570;0.000;0.000;2023-10-31T02:11:47;97014.84;;;19.30;42.36
30856;BME280;17570;0.000;0.000;2023-10-31T02:14:15;97007.85;;;19.22;42.03
30856;BME280;17570;0.000;0.000;2023-10-31T02:16:43;97006.37;;;19.20;42.27
30856;BME280;17570;0.000;0.000;2023-10-31T02:19:10;97006.37;;;19.20;42.15
30856;BME280;17570;0.000;0.000;2023-10-31T02:21:39;97005.08;;;19.16;42.35
30856;BME280;17570;0.000;0.000;2023-10-31T02:24:07;96997.71;;;19.11;42.27
30856;BME280;17570;0.000;0.000;2023-10-31T02:26:35;97003.97;;;19.10;42.40
30856;BME280;17570;0.000;0.000;2023-10-31T02:29:03;97003.16;;;19.09;42.30
30856;BME280;17570;0.000;0.000;2023-10-31T02:31:30;97004.50;;;19.05;42.75
30856;BME280;17570;0.000;0.000;2023-10-31T02:33:58;96996.42;;;19.07;42.53
30856;BME280;17570;0.000;0.000;2023-10-31T02:36:25;96999.57;;;19.02;42.26
30856;BME280;17570;0.000;0.000;2023-10-31T02:38:53;96996.31;;;19.00;42.45
30856;BME280;17570;0.000;0.000;2023-10-31T02:41:21;97004.20;;;19.00;42.62
30856;BME280;17570;0.000;0.000;2023-10-31T02:43:49;97001.75;;;18.99;42.39
30856;BME280;17570;0.000;0.000;2023-10-31T02:46:16;96996.64;;;18.97;42.35
30856;BME280;17570;0.000;0.000;2023-10-31T02:48:45;96997.64;;;18.96;42.48
30856;BME280;17570;0.000;0.000;2023-10-31T02:51:13;96991.09;;;18.92;42.36
30856;BME280;17570;0.000;0.000;2023-10-31T02:53:42;97004.42;;;18.91;42.76
30856;BME280;17570;0.000;0.000;2023-10-31T02:56:10;97004.94;;;18.86;42.66
30856;BME280;17570;0.000;0.000;2023-10-31T02:58:37;97001.50;;;18.85;42.92
30856;BME280;17570;0.000;0.000;2023-10-31T03:01:05;97004.94;;;18.86;43.23
30856;BME280;17570;0.000;0.000;2023-10-31T03:03:33;97007.09;;;18.82;42.75
30856;BME280;17570;0.000;0.000;2023-10-31T03:06:00;97007.61;;;18.78;43.46
30856;BME280;17570;0.000;0.000;2023-10-31T03:08:28;97008.27;;;18.80;43.22
30856;BME280;17570;0.000;0.000;2023-10-31T03:10:55;97013.53;;;18.80;43.15
30856;BME280;17570;0.000;0.000;2023-10-31T03:13:23;97015.16;;;18.81;43.55
30856;BME280;17570;0.000;0.000;2023-10-31T03:15:50;97009.09;;;18.80;43.29
30856;BME280;17570;0.000;0.000;2023-10-31T03:18:19;96996.94;;;18.79;43.29
30856;BME280;17570;0.000;0.000;2023-10-31T03:20:47;97005.16;;;18.76;43.29
30856;BME280;17570;0.000;0.000;2023-10-31T03:23:14;97000.72;;;18.77;43.27
30856;BME280;17570;0.000;0.000;2023-10-31T03:25:42;97005.49;;;18.73;43.08
30856;BME280;17570;0.000;0.000;2023-10-31T03:28:19;97009.12;;;18.72;43.10
30856;BME280;17570;0.000;0.000;2023-10-31T03:30:49;97006.01;;;18.69;42.84
30856;BME280;17570;0.000;0.000;2023-10-31T03:33:17;97007.67;;;18.61;43.02
30856;BME280;17570;0.000;0.000;2023-10-31T03:35:45;97012.92;;;18.61;43.50
30856;BME280;17570;0.000;0.000;2023-10-31T03:38:13;97007.81;;;18.60;43.08
30856;BME280;17570;0.000;0.000;2023-10-31T03:40:40;97003.56;;;18.59;43.04
30856;BME280;17570;0.000;0.000;2023-10-31T03:43:08;97017.52;;;18.59;43.33
30856;BME280;17570;0.000;0.000;2023-10-31T03:45:36;97008.00;;;18.58;43.08
30856;BME280;17570;0.000;0.000;2023-10-31T03:48:04;97011.45;;;18.59;43.04
30856;BME280;17570;0.000;0.000;2023-10-31T03:50:31;97010.45;;;18.60;42.87
30856;BME280;17570;0.000;0.000;2023-10-31T03:52:59;97006.55;;;18.56;43.23
30856;BME280;17570;0.000;0.000;2023-10-31T03:55:26;97008.69;;;18.52;43.03
30856;BME280;17570;0.000;0.000;2023-10-31T03:57:54;97001.80;;;18.51;43.04
30856;BME280;17570;0.000;0.000;2023-10-31T04:00:22;97009.69;;;18.51;43.00
30856;BME280;17570;0.000;0.000;2023-10-31T04:02:49;97001.14;;;18.49;42.95
30856;BME280;17570;0.000;0.000;2023-10-31T04:05:17;97005.76;;;18.47;43.05
30856;BME280;17570;0.000;0.000;2023-10-31T04:07:46;97014.48;;;18.40;43.00
30856;BME280;17570;0.000;0.000;2023-10-31T04:10:14;97013.99;;;18.36;43.17
30856;BME280;17570;0.000;0.000;2023-10-31T04:12:41;97007.92;;;18.35;42.91
30856;BME280;17570;0.000;0.000;2023-10-31T04:15:09;97010.88;;;18.32;42.81
30856;BME280;17570;0.000;0.000;2023-10-31T04:17:37;97004.66;;;18.33;42.58
30856;BME280;17570;0.000;0.000;2023-10-31T04:20:05;96999.09;;;18.28;42.81
30856;BME280;17570;0.000;0.000;2023-10-31T04:22:32;96998.28;;;18.28;42.71
30856;BME280;17570;0.000;0.000;2023-10-31T04:25:00;97007.13;;;18.27;42.75
30856;BME280;17570;0.000;0.000;2023-10-31T04:27:27;96987.09;;;18.26;42.86
30856;BME280;17570;0.000;0.000;2023-10-31T04:29:55;96981.03;;;18.25;42.66
30856;BME280;17570;0.000;0.000;2023-10-31T04:32:23;96992.05;;;18.21;42.21
30856;BME280;17570;0.000;0.000;2023-10-31T04:34:50;96980.90;;;18.19;42.30
30856;BME280;17570;0.000;0.000;2023-10-31T04:37:17;96984.67;;;18.16;42.99
30856;BME280;17570;0.000;0.000;2023-10-31T04:39:45;96989.29;;;18.14;42.38
30856;BME280;17570;0.000;0.000;2023-10-31T04:42:12;96925.36;;;17.74;42.42
30856;BME280;17570;0.000;0.000;2023-10-31T04:44:40;96982.06;;;18.08;42.71
30856;BME280;17570;0.000;0.000;2023-10-31T04:47:08;96970.73;;;18.07;42.98
30856;BME280;17570;0.000;0.000;2023-10-31T04:49:35;96981.24;;;18.07;42.25
30856;BME280;17570;0.000;0.000;2023-10-31T04:52:03;96972.06;;;18.03;42.34
30856;BME280;17570;0.000;0.000;2023-10-31T04:54:30;96974.05;;;18.01;42.35
30856;BME280;17570;0.000;0.000;2023-10-31T04:56:58;96976.18;;;17.98;42.21
30856;BME280;17570;0.000;0.000;2023-10-31T04:59:25;96967.42;;;18.14;42.99
30856;BME280;17570;0.000;0.000;2023-10-31T05:01:53;96963.15;;;18.21;43.81
30856;BME280;17570;0.000;0.000;2023-10-31T05:04:21;96958.70;;;18.21;43.84
30856;BME280;17570;0.000;0.000;2023-10-31T05:06:49;96967.77;;;18.19;44.06
30856;BME280;17570;0.000;0.000;2023-10-31T05:09:16;96963.02;;;18.14;43.61
30856;BME280;17570;0.000;0.000;2023-10-31T05:11:46;96956.61;;;18.08;43.46
30856;BME280;17570;0.000;0.000;2023-10-31T05:14:13;96961.41;;;18.05;43.16
30856;BME280;17570;0.000;0.000;2023-10-31T05:16:41;96949.41;;;18.02;43.10
30856;BME280;17570;0.000;0.000;2023-10-31T05:19:09;96947.78;;;18.01;43.01
30856;BME280;17570;0.000;0.000;2023-10-31T05:21:37;96947.11;;;17.99;43.00
30856;BME280;17570;0.000;0.000;2023-10-31T05:24:05;96950.91;;;17.97;42.99
30856;BME280;17570;0.000;0.000;2023-10-31T05:26:33;96958.97;;;17.95;43.37
30856;BME280;17570;0.000;0.000;2023-10-31T05:29:00;96958.63;;;17.90;43.47
30856;BME280;17570;0.000;0.000;2023-10-31T05:31:28;96960.44;;;17.90;43.24
30856;BME280;17570;0.000;0.000;2023-10-31T05:33:56;96963.23;;;17.88;43.39
30856;BME280;17570;0.000;0.000;2023-10-31T05:36:24;96974.73;;;17.87;43.39
30856;BME280;17570;0.000;0.000;2023-10-31T05:38:52;96981.80;;;17.87;43.69
30856;BME280;17570;0.000;0.000;2023-10-31T05:41:19;96977.69;;;17.84;43.76
30856;BME280;17570;0.000;0.000;2023-10-31T05:43:47;96976.69;;;17.85;43.79
30856;BME280;17570;0.000;0.000;2023-10-31T05:46:14;96982.62;;;17.87;43.97
30856;BME280;17570;0.000;0.000;2023-10-31T05:48:47;96980.98;;;17.86;43.99
30856;BME280;17570;0.000;0.000;2023-10-31T05:51:15;96985.24;;;17.87;43.97
30856;BME280;17570;0.000;0.000;2023-10-31T05:53:44;96982.13;;;17.83;43.89
30856;BME280;17570;0.000;0.000;2023-10-31T05:56:13;96979.81;;;17.80;44.48
30856;BME280;17570;0.000;0.000;2023-10-31T05:58:41;96981.48;;;17.81;44.98
30856;BME280;17570;0.000;0.000;2023-10-31T06:01:08;96985.39;;;17.85;44.77
30856;BME280;17570;0.000;0.000;2023-10-31T06:03:36;96998.02;;;17.90;44.88
30856;BME280;17570;0.000;0.000;2023-10-31T06:06:04;96994.43;;;17.91;44.96
30856;BME280;17570;0.000;0.000;2023-10-31T06:08:32;96989.32;;;17.90;45.17
30856;BME280;17570;0.000;0.000;2023-10-31T06:10:59;97004.12;;;17.91;45.49
30856;BME280;17570;0.000;0.000;2023-10-31T06:13:27;96983.56;;;17.94;45.50
30856;BME280;17570;0.000;0.000;2023-10-31T06:15:56;96990.95;;;17.99;45.90
30856;BME280;17570;0.000;0.000;2023-10-31T06:18:24;96997.69;;;18.01;45.95
30856;BME280;17570;0.000;0.000;2023-10-31T06:20:52;96986.16;;;18.19;46.17
30856;BME280;17570;0.000;0.000;2023-10-31T06:23:20;96990.65;;;18.41;47.26
30856;BME280;17570;0.000;0.000;2023-10-31T06:25:47;97002.95;;;18.49;47.11
30856;BME280;17570;0.000;0.000;2023-10-31T06:28:15;96992.92;;;18.52;47.19
30856;BME280;17570;0.000;0.000;2023-10-31T06:30:42;96997.81;;;18.55;47.08
30856;BME280;17570;0.000;0.000;2023-10-31T06:33:10;97002.92;;;18.57;46.81
30856;BME280;17570;0.000;0.000;2023-10-31T06:35:38;97003.23;;;18.62;46.80
30856;BME280;17570;0.000;0.000;2023-10-31T06:38:05;97006.86;;;18.61;46.81
30856;BME280;17570;0.000;0.000;2023-10-31T06:40:33;97003.05;;;18.64;46.55
30856;BME280;17570;0.000;0.000;2023-10-31T06:43:03;97006.34;;;18.66;46.66
30856;BME280;17570;0.000;0.000;2023-10-31T06:45:31;96996.64;;;18.66;46.63
30856;BME280;17570;0.000;0.000;2023-10-31T06:47:58;96997.27;;;18.68;46.85
30856;BME280;17570;0.000;0.000;2023-10-31T06:50:26;96988.91;;;18.73;46.86
30856;BME280;17570;0.000;0.000;2023-10-31T06:52:53;96987.75;;;18.75;47.13
30856;BME280;17570;0.000;0.000;2023-10-31T06:55:21;96975.72;;;18.81;47.17
30856;BME280;17570;0.000;0.000;2023-10-31T06:57:48;96981.09;;;18.88;46.89
30856;BME280;17570;0.000;0.000;2023-10-31T07:00:16;96973.86;;;18.90;47.06
30856;BME280;17570;0.000;0.000;2023-10-31T07:02:44;96973.63;;;18.99;46.79
30856;BME280;17570;0.000;0.000;2023-10-31T07:05:11;96970.30;;;19.05;46.64
30856;BME280;17570;0.000;0.000;2023-10-31T07:07:39;96965.17;;;19.12;46.10
30856;BME280;17570;0.000;0.000;2023-10-31T07:10:06;96959.01;;;19.20;45.75
30856;BME280;17570;0.000;0.000;2023-10-31T07:12:34;96962.59;;;19.27;46.15
30856;BME280;17570;0.000;0.000;2023-10-31T07:15:03;96952.63;;;19.37;46.13
30856;BME280;17570;0.000;0.000;2023-10-31T07:17:31;96959.12;;;19.49;45.87
30856;BME280;17570;0.000;0.000;2023-10-31T07:19:58;96961.49;;;19.59;45.54
30856;BME280;17570;0.000;0.000;2023-10-31T07:22:26;96955.19;;;19.68;45.24
30856;BME280;17570;0.000;0.000;2023-10-31T07:24:54;96946.21;;;19.77;45.34
30856;BME280;17570;0.000;0.000;2023-10-31T07:27:21;96946.92;;;19.86;44.83
30856;BME280;17570;0.000;0.000;2023-10-31T07:29:49;96938.13;;;19.94;44.92
30856;BME280;17570;0.000;0.000;2023-10-31T07:32:16;96944.86;;;19.96;45.03
30856;BME280;17570;0.000;0.000;2023-10-31T07:34:44;96932.58;;;20.03;44.65
30856;BME280;17570;0.000;0.000;2023-10-31T07:37:11;96929.31;;;20.16;44.97
30856;BME280;17570;0.000;0.000;2023-10-31T07:39:39;96932.41;;;20.20;44.84
30856;BME280;17570;0.000;0.000;2023-10-31T07:42:07;96925.64;;;20.32;44.52
30856;BME280;17570;0.000;0.000;2023-10-31T07:44:35;96908.98;;;20.46;44.56
30856;BME280;17570;0.000;0.000;2023-10-31T07:47:02;96912.81;;;20.58;44.08
30856;BME280;17570;0.000;0.000;2023-10-31T07:49:30;96906.42;;;20.68;43.85
30856;BME280;17570;0.000;0.000;2023-10-31T07:51:58;96917.22;;;20.73;44.01
30856;BME280;17570;0.000;0.000;2023-10-31T07:54:25;96904.17;;;20.86;43.28
30856;BME280;17570;0.000;0.000;2023-10-31T07:56:53;96896.70;;;20.89;43.89
30856;BME280;17570;0.000;0.000;2023-10-31T07:59:20;96886.56;;;20.93;42.93
30856;BME280;17570;0.000;0.000;2023-10-31T08:01:48;96882.18;;;21.00;43.03
30856;BME280;17570;0.000;0.000;2023-10-31T08:04:17;96878.16;;;21.04;43.00
30856;BME280;17570;0.000;0.000;2023-10-31T08:06:45;96868.09;;;21.14;42.87
30856;BME280;17570;0.000;0.000;2023-10-31T08:09:12;96859.22;;;21.22;42.30
30856;BME280;17570;0.000;0.000;2023-10-31T08:11:40;96861.56;;;21.32;43.19
30856;BME280;17570;0.000;0.000;2023-10-31T08:14:07;96853.19;;;21.07;43.06
30856;BME280;17570;0.000;0.000;2023-10-31T08:16:35;96858.00;;;21.46;43.19
30856;BME280;17570;0.000;0.000;2023-10-31T08:19:03;96838.12;;;21.91;42.88
30856;BME280;17570;0.000;0.000;2023-10-31T08:21:30;96836.98;;;22.07;42.62
30856;BME280;17570;0.000;0.000;2023-10-31T08:24:00;96838.95;;;22.40;43.69
30856;BME280;17570;0.000;0.000;2023-10-31T08:26:28;96835.92;;;22.56;43.54
30856;BME280;17570;0.000;0.000;2023-10-31T08:28:55;96827.59;;;22.59;43.17
30856;BME280;17570;0.000;0.000;2023-10-31T08:31:23;96822.91;;;22.61;42.85
30856;BME280;17570;0.000;0.000;2023-10-31T08:33:50;96811.33;;;22.69;42.63
30856;BME280;17570;0.000;0.000;2023-10-31T08:36:18;96807.47;;;22.78;41.63
30856;BME280;17570;0.000;0.000;2023-10-31T08:38:45;96794.65;;;22.82;41.34
30856;BME280;17570;0.000;0.000;2023-10-31T08:41:13;96788.53;;;22.88;40.85
30856;BME280;17570;0.000;0.000;2023-10-31T08:43:42;96785.50;;;22.98;40.47
30856;BME280;17570;0.000;0.000;2023-10-31T08:46:10;96778.17;;;23.06;40.78
30856;BME280;17570;0.000;0.000;2023-10-31T08:48:37;96760.23;;;23.15;40.13
30856;BME280;17570;0.000;0.000;2023-10-31T08:51:05;96758.38;;;23.29;39.88
30856;BME280;17570;0.000;0.000;2023-10-31T08:53:33;96754.89;;;23.41;39.08
30856;BME280;17570;0.000;0.000;2023-10-31T08:56:00;96744.05;;;23.50;38.52
30856;BME280;17570;0.000;0.000;2023-10-31T08:58:28;96736.27;;;23.61;37.99
30856;BME280;17570;0.000;0.000;2023-10-31T09:00:56;96736.03;;;23.76;37.83
30856;BME280;17570;0.000;0.000;2023-10-31T09:03:23;96730.90;;;23.88;37.51
30856;BME280;17570;0.000;0.000;2023-10-31T09:05:51;96716.95;;;23.99;36.88
30856;BME280;17570;0.000;0.000;2023-10-31T09:08:18;96704.85;;;24.10;36.41
30856;BME280;17570;0.000;0.000;2023-10-31T09:10:46;96699.69;;;24.22;36.36
30856;BME280;17570;0.000;0.000;2023-10-31T09:13:13;96691.84;;;24.33;35.64
30856;BME280;17570;0.000;0.000;2023-10-31T09:15:41;96692.42;;;24.42;35.87
30856;BME280;17570;0.000;0.000;2023-10-31T09:18:08;96688.05;;;24.54;35.42
30856;BME280;17570;0.000;0.000;2023-10-31T09:20:38;96677.32;;;24.67;34.89
30856;BME280;17570;0.000;0.000;2023-10-31T09:23:05;96670.70;;;24.77;35.24
30856;BME280;17570;0.000;0.000;2023-10-31T09:25:33;96670.55;;;24.90;35.57
30856;BME280;17570;0.000;0.000;2023-10-31T09:28:00;96661.06;;;25.01;35.67
30856;BME280;17570;0.000;0.000;2023-10-31T09:30:28;96662.80;;;25.13;34.72
30856;BME280;17570;0.000;0.000;2023-10-31T09:32:55;96646.48;;;25.28;33.67
30856;BME280;17570;0.000;0.000;2023-10-31T09:35:23;96647.13;;;25.42;34.34
30856;BME280;17570;0.000;0.000;2023-10-31T09:37:51;96644.88;;;25.57;34.36
30856;BME280;17570;0.000;0.000;2023-10-31T09:40:18;96631.42;;;25.70;34.71
30856;BME280;17570;0.000;0.000;2023-10-31T09:42:46;96633.01;;;25.90;34.96
30856;BME280;17570;0.000;0.000;2023-10-31T09:45:16;96636.65;;;26.07;35.02
30856;BME280;17570;0.000;0.000;2023-10-31T09:47:44;96636.56;;;26.26;34.67
30856;BME280;17570;0.000;0.000;2023-10-31T09:50:11;96638.12;;;26.45;34.38
30856;BME280;17570;0.000;0.000;2023-10-31T09:52:39;96637.31;;;26.68;34.35
30856;BME280;17570;0.000;0.000;2023-10-31T09:55:07;96630.11;;;26.92;33.65
30856;BME280;17570;0.000;0.000;2023-10-31T09:57:35;96624.06;;;27.20;33.34
30856;BME280;17570;0.000;0.000;2023-10-31T10:00:02;96626.41;;;27.45;33.35
30856;BME280;17570;0.000;0.000;2023-10-31T10:02:31;96623.22;;;27.71;32.62
30856;BME280;17570;0.000;0.000;2023-10-31T10:04:59;96614.03;;;27.96;31.39
30856;BME280;17570;0.000;0.000;2023-10-31T10:07:27;96614.22;;;28.23;30.13
30856;BME280;17570;0.000;0.000;2023-10-31T10:09:55;96613.83;;;28.48;29.06
30856;BME280;17570;0.000;0.000;2023-10-31T10:12:23;96603.02;;;28.77;28.61
30856;BME280;17570;0.000;0.000;2023-10-31T10:14:50;96595.92;;;29.04;27.81
30856;BME280;17570;0.000;0.000;2023-10-31T10:17:23;96592.19;;;29.27;27.21
30856;BME280;17570;0.000;0.000;2023-10-31T10:20:09;96592.72;;;29.51;26.68
30856;BME280;17570;0.000;0.000;2023-10-31T10:22:22;96589.53;;;29.76;26.27
30856;BME280;17570;0.000;0.000;2023-10-31T10:24:51;96581.72;;;30.02;26.01
30856;BME280;17570;0.000;0.000;2023-10-31T10:27:19;96580.39;;;30.31;25.62
30856;BME280;17570;0.000;0.000;2023-10-31T10:29:47;96576.02;;;30.62;24.71
30856;BME280;17570;0.000;0.000;2023-10-31T10:32:14;96576.73;;;30.90;24.01
30856;BME280;17570;0.000;0.000;2023-10-31T10:34:42;96574.17;;;31.15;23.50
30856;BME280;17570;0.000;0.000;2023-10-31T10:37:09;96586.08;;;31.40;22.82
30856;BME280;17570;0.000;0.000;2023-10-31T10:39:37;96578.06;;;31.65;22.25
30856;BME280;17570;0.000;0.000;2023-10-31T10:42:09;96577.86;;;31.92;22.09
30856;BME280;17570;0.000;0.000;2023-10-31T10:44:35;96574.36;;;32.17;21.62
30856;BME280;17570;0.000;0.000;2023-10-31T10:47:05;96580.04;;;32.41;21.05
30856;BME280;17570;0.000;0.000;2023-10-31T10:49:34;96565.75;;;32.61;20.72
30856;BME280;17570;0.000;0.000;2023-10-31T14:28:20;96412.81;;;27.25;21.17
30856;BME280;17570;0.000;0.000;2023-10-31T14:30:48;96398.39;;;28.32;20.00
30856;BME280;17570;0.000;0.000;2023-10-31T14:33:15;96401.31;;;29.60;19.38
30856;BME280;17570;0.000;0.000;2023-10-31T14:35:43;96402.26;;;30.23;17.61
30856;BME280;17570;0.000;0.000;2023-10-31T14:38:10;96392.20;;;30.51;18.51
30856;BME280;17570;0.000;0.000;2023-10-31T14:40:38;96384.45;;;30.60;18.39
30856;BME280;17570;0.000;0.000;2023-10-31T14:43:05;96384.19;;;30.61;18.67
30856;BME280;17570;0.000;0.000;2023-10-31T14:45:33;96394.09;;;30.61;18.35
30856;BME280;17570;0.000;0.000;2023-10-31T14:48:01;96397.56;;;30.56;17.54
30856;BME280;17570;0.000;0.000;2023-10-31T14:50:29;96398.35;;;30.52;18.71
30856;BME280;17570;0.000;0.000;2023-10-31T14:52:56;96390.55;;;30.45;18.59
30856;BME280;17570;0.000;0.000;2023-10-31T14:55:24;96385.95;;;30.35;18.43
30856;BME280;17570;0.000;0.000;2023-10-31T14:57:52;96383.02;;;30.32;18.21
30856;BME280;17570;0.000;0.000;2023-10-31T15:00:19;96376.55;;;30.22;19.07
30856;BME280;17570;0.000;0.000;2023-10-31T15:02:47;96372.23;;;30.16;19.12
30856;BME280;17570;0.000;0.000;2023-10-31T15:05:14;96377.00;;;30.09;19.45
30856;BME280;17570;0.000;0.000;2023-10-31T15:07:42;96369.97;;;29.98;20.01
30856;BME280;17570;0.000;0.000;2023-10-31T15:10:10;96369.44;;;29.96;19.82
30856;BME280;17570;0.000;0.000;2023-10-31T15:12:37;96368.34;;;29.92;19.83
30856;BME280;17570;0.000;0.000;2023-10-31T15:15:05;96362.94;;;29.82;20.50
30856;BME280;17570;0.000;0.000;2023-10-31T15:17:33;96365.29;;;29.73;20.39
30856;BME280;17570;0.000;0.000;2023-10-31T15:20:00;96359.58;;;29.59;19.60
30856;BME280;17570;0.000;0.000;2023-10-31T15:22:28;96357.35;;;29.51;21.01
30856;BME280;17570;0.000;0.000;2023-10-31T15:24:55;96352.73;;;29.41;21.18
30856;BME280;17570;0.000;0.000;2023-10-31T15:27:23;96354.00;;;29.29;21.56
30856;BME280;17570;0.000;0.000;2023-10-31T15:29:51;96352.90;;;29.25;21.31
30856;BME280;17570;0.000;0.000;2023-10-31T15:32:18;96357.64;;;29.17;22.09
30856;BME280;17570;0.000;0.000;2023-10-31T15:34:46;96357.52;;;29.02;22.59
30856;BME280;17570;0.000;0.000;2023-10-31T15:37:14;96358.75;;;28.94;22.68
30856;BME280;17570;0.000;0.000;2023-10-31T15:39:42;96349.84;;;28.84;22.43
30856;BME280;17570;0.000;0.000;2023-10-31T15:42:09;96350.81;;;28.72;22.95
30856;BME280;17570;0.000;0.000;2023-10-31T15:44:37;96352.06;;;28.65;22.88
30856;BME280;17570;0.000;0.000;2023-10-31T15:47:06;96350.09;;;28.55;23.53
30856;BME280;17570;0.000;0.000;2023-10-31T15:49:34;96354.22;;;28.41;23.91
30856;BME280;17570;0.000;0.000;2023-10-31T15:52:02;96356.48;;;28.32;23.73
30856;BME280;17570;0.000;0.000;2023-10-31T15:54:31;96367.85;;;28.22;23.85
30856;BME280;17570;0.000;0.000;2023-10-31T15:57:00;96383.23;;;28.15;24.28
30856;BME280;17570;0.000;0.000;2023-10-31T15:59:27;96373.48;;;28.04;24.09
30856;BME280;17570;0.000;0.000;2023-10-31T16:01:55;96380.63;;;27.99;24.55
30856;BME280;17570;0.000;0.000;2023-10-31T16:04:23;96374.58;;;27.86;24.31
30856;BME280;17570;0.000;0.000;2023-10-31T16:06:52;96381.39;;;27.77;24.55
30856;BME280;17570;0.000;0.000;2023-10-31T16:09:20;96373.47;;;27.65;25.02
30856;BME280;17570;0.000;0.000;2023-10-31T16:11:48;96373.95;;;27.62;24.09
30856;BME280;17570;0.000;0.000;2023-10-31T16:14:15;96380.27;;;27.56;24.20
30856;BME280;17570;0.000;0.000;2023-10-31T16:16:45;96379.14;;;27.52;24.91
30856;BME280;17570;0.000;0.000;2023-10-31T16:19:12;96387.54;;;27.44;24.77
30856;BME280;17570;0.000;0.000;2023-10-31T16:21:40;96395.13;;;27.35;24.98
30856;BME280;17570;0.000;0.000;2023-10-31T16:24:07;96396.11;;;27.29;25.41
30856;BME280;17570;0.000;0.000;2023-10-31T16:26:36;96395.22;;;27.24;24.82
30856;BME280;17570;0.000;0.000;2023-10-31T16:29:03;96406.48;;;27.14;25.36
30856;BME280;17570;0.000;0.000;2023-10-31T16:31:32;96405.02;;;27.06;25.28
30856;BME280;17570;0.000;0.000;2023-10-31T16:33:59;96409.11;;;26.97;25.71
30856;BME280;17570;0.000;0.000;2023-10-31T16:36:27;96411.69;;;26.92;25.57
30856;BME280;17570;0.000;0.000;2023-10-31T16:38:54;96418.07;;;26.91;25.67
30856;BME280;17570;0.000;0.000;2023-10-31T16:41:23;96409.16;;;26.85;25.65
30856;BME280;17570;0.000;0.000;2023-10-31T16:43:52;96412.53;;;26.81;27.10
30856;BME280;17570;0.000;0.000;2023-10-31T16:46:19;96408.63;;;26.71;26.27
30856;BME280;17570;0.000;0.000;2023-10-31T16:48:47;96408.54;;;26.66;27.75